Time;durP1;ratioP1;P1;durP2;ratioP2;P2;SDS_P1;SDS_P2;PMS_P1;PMS_P2;Temp;Humidity;BMP_temperature;BMP_pressure;BME280_temperature;BME280_humidity;BME280_pressure;Samples;Min_cycle;Max_cycle;Signal;HPM_P1;HPM_P2
2021/08/12 00:01:49;;;;;;;;;;;15.60;99.90;;;;;;5062003;28;19924;-57
2021/08/12 00:04:37;;;;;;;;;;;15.50;99.90;;;;;;5068042;28;19924;-56
2021/08/12 00:07:26;;;;;;;;;;;15.50;99.90;;;;;;5069436;28;20288;-59
2021/08/12 00:10:15;;;;;;;;;;;15.50;99.90;;;;;;5067318;28;19925;-57
2021/08/12 00:13:06;;;;;;;;;;;15.50;99.90;;;;;;5068429;28;20006;-58
2021/08/12 00:15:54;;;;;;;;;;;15.50;99.90;;;;;;5062227;28;19925;-57
2021/08/12 00:18:44;;;;;;;;;;;15.40;99.90;;;;;;5069461;28;19936;-57
2021/08/12 00:21:34;;;;;;;;;;;15.40;99.90;;;;;;5068239;28;20051;-57
2021/08/12 00:24:25;;;;;;;;;;;15.30;99.90;;;;;;5070640;28;20355;-57
2021/08/12 00:27:13;;;;;;;;;;;15.20;99.90;;;;;;5075019;28;19987;-58
2021/08/12 00:30:05;;;;;;;;;;;15.20;99.90;;;;;;5077332;28;19932;-58
2021/08/12 00:32:54;;;;;;;;;;;15.10;99.90;;;;;;5084528;28;20000;-58
2021/08/12 00:35:50;;;;;;;;;;;15.10;99.90;;;;;;5072230;28;20266;-58
2021/08/12 00:39:03;;;;;;;;;;;15.10;99.90;;;;;;5096740;28;19941;-57
2021/08/12 00:41:55;;;;;;;;;;;15.10;99.90;;;;;;5096893;28;19935;-57
2021/08/12 00:44:44;;;;;;;;;;;15.10;99.90;;;;;;5093699;28;20019;-58
2021/08/12 00:47:35;;;;;;;;;;;15.10;99.90;;;;;;5066805;28;19931;-58
2021/08/12 00:50:25;;;;;;;;;;;15.10;99.90;;;;;;5067266;28;20321;-58
2021/08/12 00:53:13;;;;;;;;;;;15.10;99.90;;;;;;5075316;28;19936;-58
2021/08/12 00:56:04;;;;;;;;;;;15.10;99.90;;;;;;5082511;28;20019;-58
2021/08/12 00:58:54;;;;;;;;;;;15.00;99.90;;;;;;5104447;28;19960;-58
2021/08/12 01:01:45;;;;;;;;;;;14.90;99.90;;;;;;5080338;28;19939;-58
2021/08/12 01:04:36;;;;;;;;;;;15.00;99.90;;;;;;5089325;28;19955;-60
2021/08/12 01:07:31;;;;;;;;;;;14.90;99.90;;;;;;5101293;28;19920;-58
2021/08/12 01:10:24;;;;;;;;;;;14.90;99.90;;;;;;5090384;28;19963;-57
2021/08/12 01:13:15;;;;;;;;;;;14.80;99.90;;;;;;5086347;28;19928;-58
2021/08/12 01:16:05;;;;;;;;;;;14.80;99.90;;;;;;5081915;28;19929;-58
2021/08/12 01:18:58;;;;;;;;;;;14.80;99.90;;;;;;5113124;28;19916;-58
2021/08/12 01:21:54;;;;;;;;;;;14.70;99.90;;;;;;5089625;28;19912;-59
2021/08/12 01:24:45;;;;;;;;;;;14.60;99.90;;;;;;5116499;28;19934;-58
2021/08/12 01:27:36;;;;;;;;;;;14.60;99.90;;;;;;5091839;28;19924;-58
2021/08/12 01:30:30;;;;;;;;;;;14.60;99.90;;;;;;5109021;28;19924;-57
2021/08/12 01:33:25;;;;;;;;;;;14.50;99.90;;;;;;5091364;28;19934;-57
2021/08/12 01:36:16;;;;;;;;;;;14.50;99.90;;;;;;5080179;28;19935;-58
2021/08/12 01:39:05;;;;;;;;;;;14.40;99.90;;;;;;5087707;28;19924;-58
2021/08/12 01:41:56;;;;;;;;;;;14.40;99.90;;;;;;5084667;28;19935;-58
2021/08/12 01:44:47;;;;;;;;;;;14.40;99.90;;;;;;5096420;28;19912;-58
2021/08/12 01:47:39;;;;;;;;;;;14.40;99.90;;;;;;5114696;28;20000;-61
2021/08/12 01:50:29;;;;;;;;;;;14.40;99.90;;;;;;5088499;28;19925;-58
2021/08/12 01:53:22;;;;;;;;;;;14.40;99.90;;;;;;5113176;28;19912;-58
2021/08/12 01:56:11;;;;;;;;;;;14.40;99.90;;;;;;5088460;28;20355;-57
2021/08/12 01:59:05;;;;;;;;;;;14.40;99.90;;;;;;5079574;28;20034;-57
2021/08/12 02:01:54;;;;;;;;;;;14.40;99.90;;;;;;5074569;28;20018;-58
2021/08/12 02:04:45;;;;;;;;;;;14.40;99.90;;;;;;5093028;28;20363;-58
2021/08/12 02:07:35;;;;;;;;;;;14.40;99.90;;;;;;5077791;28;19933;-58
2021/08/12 02:10:26;;;;;;;;;;;14.40;99.90;;;;;;5076796;28;19958;-57
2021/08/12 02:13:15;;;;;;;;;;;14.30;99.90;;;;;;5095603;28;20410;-58
2021/08/12 02:16:08;;;;;;;;;;;14.30;99.90;;;;;;5087290;28;19974;-57
2021/08/12 02:19:00;;;;;;;;;;;14.20;99.90;;;;;;5097498;28;19967;-57
2021/08/12 02:21:51;;;;;;;;;;;14.20;99.90;;;;;;5059240;28;19931;-57
2021/08/12 02:24:42;;;;;;;;;;;14.20;99.90;;;;;;5082485;28;20034;-57
2021/08/12 02:27:37;;;;;;;;;;;14.10;99.90;;;;;;5070369;28;19928;-57
2021/08/12 02:30:26;;;;;;;;;;;14.10;99.90;;;;;;5062868;28;20137;-57
2021/08/12 02:33:19;;;;;;;;;;;14.10;99.90;;;;;;5070276;28;20096;-58
2021/08/12 02:36:09;;;;;;;;;;;14.10;99.90;;;;;;5064670;28;20023;-57
2021/08/12 02:39:00;;;;;;;;;;;14.10;99.90;;;;;;5089029;28;19928;-58
2021/08/12 02:41:49;;;;;;;;;;;14.10;99.90;;;;;;5063754;28;20403;-58
2021/08/12 02:44:41;;;;;;;;;;;14.10;99.90;;;;;;5077946;28;20014;-59
2021/08/12 02:47:31;;;;;;;;;;;14.10;99.90;;;;;;5080211;28;20229;-58
2021/08/12 02:50:21;;;;;;;;;;;14.20;99.90;;;;;;5075046;28;19924;-57
2021/08/12 02:53:10;;;;;;;;;;;14.10;99.90;;;;;;5070715;28;19931;-58
2021/08/12 02:56:01;;;;;;;;;;;14.10;99.90;;;;;;5071083;28;20041;-57
2021/08/12 02:58:51;;;;;;;;;;;14.10;99.90;;;;;;5067873;28;19925;-58
2021/08/12 03:01:41;;;;;;;;;;;14.10;99.90;;;;;;5065324;28;19974;-58
2021/08/12 03:04:33;;;;;;;;;;;14.10;99.90;;;;;;5071226;28;19928;-57
2021/08/12 03:07:23;;;;;;;;;;;14.00;99.90;;;;;;5096868;28;20000;-58
2021/08/12 03:10:14;;;;;;;;;;;14.00;99.90;;;;;;5070886;28;20440;-57
2021/08/12 03:13:05;;;;;;;;;;;13.90;99.90;;;;;;5071134;28;20299;-57
2021/08/12 03:15:54;;;;;;;;;;;13.90;99.90;;;;;;5060772;28;19933;-58
2021/08/12 03:18:44;;;;;;;;;;;13.90;99.90;;;;;;5071686;28;19928;-58
2021/08/12 03:21:32;;;;;;;;;;;13.80;99.90;;;;;;5097249;28;20197;-58
2021/08/12 03:24:21;;;;;;;;;;;13.80;99.90;;;;;;5067216;28;19933;-58
2021/08/12 03:27:12;;;;;;;;;;;13.80;99.90;;;;;;5086085;28;19925;-58
2021/08/12 03:30:01;;;;;;;;;;;13.80;99.90;;;;;;5067911;28;19928;-57
2021/08/12 03:32:50;;;;;;;;;;;13.70;99.90;;;;;;5068480;28;20368;-57
2021/08/12 03:36:04;;;;;;;;;;;13.80;99.90;;;;;;5069257;28;19924;-58
2021/08/12 03:38:55;;;;;;;;;;;13.70;99.90;;;;;;5098412;28;19928;-58
2021/08/12 03:41:44;;;;;;;;;;;13.80;99.90;;;;;;5069839;28;19931;-58
2021/08/12 03:44:34;;;;;;;;;;;13.70;99.90;;;;;;5095158;28;19928;-57
2021/08/12 03:47:26;;;;;;;;;;;13.70;99.90;;;;;;5065050;28;19931;-57
2021/08/12 03:50:18;;;;;;;;;;;13.70;99.90;;;;;;5068658;28;20359;-57
2021/08/12 03:53:07;;;;;;;;;;;13.70;99.90;;;;;;5082607;28;20474;-57
2021/08/12 03:56:00;;;;;;;;;;;13.70;99.90;;;;;;5070437;28;20360;-58
2021/08/12 03:58:51;;;;;;;;;;;13.70;99.90;;;;;;5092833;28;19924;-58
2021/08/12 04:01:41;;;;;;;;;;;13.70;99.90;;;;;;5090564;28;19924;-57
2021/08/12 04:04:31;;;;;;;;;;;13.70;99.90;;;;;;5093638;28;19924;-57
2021/08/12 04:07:20;;;;;;;;;;;13.70;99.90;;;;;;5071478;28;19929;-57
2021/08/12 04:10:10;;;;;;;;;;;13.70;99.90;;;;;;5067456;28;19976;-58
2021/08/12 04:13:01;;;;;;;;;;;13.70;99.90;;;;;;5070093;28;19976;-58
2021/08/12 04:15:50;;;;;;;;;;;13.70;99.90;;;;;;5086091;28;19931;-58
2021/08/12 04:18:39;;;;;;;;;;;13.60;99.90;;;;;;5070067;28;20039;-57
2021/08/12 04:21:27;;;;;;;;;;;13.60;99.90;;;;;;5068658;28;20363;-57
2021/08/12 04:24:17;;;;;;;;;;;13.60;99.90;;;;;;5066954;28;19931;-58
2021/08/12 04:27:06;;;;;;;;;;;13.60;99.90;;;;;;5059088;28;20007;-57
2021/08/12 04:30:00;;;;;;;;;;;13.70;99.90;;;;;;5082992;28;19930;-57
2021/08/12 04:32:49;;;;;;;;;;;13.70;99.90;;;;;;5081471;28;19928;-57
2021/08/12 04:35:38;;;;;;;;;;;13.80;99.90;;;;;;5069994;28;19928;-57
2021/08/12 04:38:52;;;;;;;;;;;13.80;99.90;;;;;;5070919;28;20007;-57
2021/08/12 04:41:42;;;;;;;;;;;13.80;99.90;;;;;;5067481;28;19932;-57
2021/08/12 04:44:32;;;;;;;;;;;13.90;99.90;;;;;;5068270;28;20013;-57
2021/08/12 04:47:22;;;;;;;;;;;13.90;99.90;;;;;;5058958;28;20357;-57
2021/08/12 04:50:38;;;;;;;;;;;14.00;99.90;;;;;;5082470;28;20053;-59
2021/08/12 04:53:28;;;;;;;;;;;14.10;99.90;;;;;;5095143;28;19924;-57
2021/08/12 04:56:17;;;;;;;;;;;14.20;99.90;;;;;;5063213;28;19931;-58
2021/08/12 04:59:06;;;;;;;;;;;14.20;99.90;;;;;;5089542;28;19939;-57
2021/08/12 05:01:55;;;;;;;;;;;14.30;99.90;;;;;;5063230;28;20470;-58
2021/08/12 05:04:46;;;;;;;;;;;14.40;99.90;;;;;;5067212;28;19994;-57
2021/08/12 05:07:35;;;;;;;;;;;14.50;99.90;;;;;;5068692;28;19928;-57
2021/08/12 05:10:24;;;;;;;;;;;14.60;99.90;;;;;;5096258;28;20023;-57
2021/08/12 05:13:14;;;;;;;;;;;14.70;99.90;;;;;;5067739;28;19931;-58
2021/08/12 05:16:03;;;;;;;;;;;14.80;99.90;;;;;;5089742;28;19924;-57
2021/08/12 05:18:53;;;;;;;;;;;14.90;99.90;;;;;;5095644;28;19925;-57
2021/08/12 05:21:44;;;;;;;;;;;15.00;99.90;;;;;;5068420;28;19935;-57
2021/08/12 05:24:33;;;;;;;;;;;15.20;99.90;;;;;;5078499;28;19924;-57
2021/08/12 05:27:22;;;;;;;;;;;15.40;99.90;;;;;;5077925;28;20353;-57
2021/08/12 05:30:12;;;;;;;;;;;15.50;99.90;;;;;;5090441;28;19928;-57
2021/08/12 05:33:01;;;;;;;;;;;15.70;99.90;;;;;;5089367;28;19995;-60
2021/08/12 05:35:51;;;;;;;;;;;16.00;99.90;;;;;;5048834;28;19939;-55
2021/08/12 05:38:42;;;;;;;;;;;16.20;99.90;;;;;;5095802;28;19932;-57
2021/08/12 05:41:32;;;;;;;;;;;16.40;99.90;;;;;;5070331;28;19925;-57
2021/08/12 05:44:22;;;;;;;;;;;16.60;99.90;;;;;;5060868;28;19931;-57
2021/08/12 05:47:13;;;;;;;;;;;16.90;99.90;;;;;;5083650;28;19984;-57
2021/08/12 05:50:03;;;;;;;;;;;17.00;99.90;;;;;;5097164;28;20027;-57
2021/08/12 05:52:52;;;;;;;;;;;17.10;99.90;;;;;;5068960;28;19925;-60
2021/08/12 05:55:44;;;;;;;;;;;17.00;99.90;;;;;;5099471;28;19931;-57
2021/08/12 05:58:37;;;;;;;;;;;16.90;99.90;;;;;;5057479;28;20384;-57
2021/08/12 06:01:26;;;;;;;;;;;17.00;99.90;;;;;;5087987;28;20009;-57
2021/08/12 06:04:19;;;;;;;;;;;17.20;99.90;;;;;;5095790;28;19928;-58
2021/08/12 06:07:08;;;;;;;;;;;17.20;99.90;;;;;;5069320;28;19928;-57
2021/08/12 06:09:58;;;;;;;;;;;17.40;99.90;;;;;;5099039;28;20348;-58
2021/08/12 06:12:50;;;;;;;;;;;17.60;99.90;;;;;;5099039;28;19928;-58
2021/08/12 06:15:39;;;;;;;;;;;17.80;99.90;;;;;;5065316;28;20037;-58
2021/08/12 06:18:30;;;;;;;;;;;18.00;99.90;;;;;;5093637;28;19970;-58
2021/08/12 06:21:20;;;;;;;;;;;18.50;99.90;;;;;;5082578;28;19925;-58
2021/08/12 06:24:14;;;;;;;;;;;18.70;99.90;;;;;;5073709;28;19928;-58
2021/08/12 06:27:04;;;;;;;;;;;19.10;99.90;;;;;;5098865;28;19963;-58
2021/08/12 06:29:54;;;;;;;;;;;19.60;99.90;;;;;;5072660;28;19931;-57
2021/08/12 06:32:43;;;;;;;;;;;20.10;99.90;;;;;;5099443;28;19925;-58
2021/08/12 06:35:34;;;;;;;;;;;20.00;99.90;;;;;;5086083;28;20015;-58
2021/08/12 06:38:23;;;;;;;;;;;20.60;99.90;;;;;;5095148;28;19925;-57
2021/08/12 06:41:12;;;;;;;;;;;21.60;99.90;;;;;;5084504;28;20372;-56
2021/08/12 06:44:30;;;;;;;;;;;22.40;99.90;;;;;;5073411;28;19947;-56
2021/08/12 06:47:22;;;;;;;;;;;23.30;99.90;;;;;;5094367;28;19928;-56
2021/08/12 06:50:35;;;;;;;;;;;24.10;99.90;;;;;;5095060;28;19924;-58
2021/08/12 06:53:25;;;;;;;;;;;24.50;99.90;;;;;;5072795;28;19931;-55
2021/08/12 06:56:14;;;;;;;;;;;24.50;99.50;;;;;;5099469;28;19964;-56
2021/08/12 06:59:03;;;;;;;;;;;25.40;98.10;;;;;;5071164;28;19924;-56
2021/08/12 07:01:51;;;;;;;;;;;25.70;96.50;;;;;;5092807;28;19925;-56
2021/08/12 07:04:41;;;;;;;;;;;25.30;97.00;;;;;;5076750;28;20327;-55
2021/08/12 07:07:32;;;;;;;;;;;25.40;97.80;;;;;;5067845;28;20143;-57
2021/08/12 07:10:21;;;;;;;;;;;25.30;97.60;;;;;;5069627;28;19925;-55
2021/08/12 07:13:09;;;;;;;;;;;25.50;97.40;;;;;;5097740;28;19931;-55
2021/08/12 07:15:59;;;;;;;;;;;25.00;98.10;;;;;;5091793;27;19928;-56
2021/08/12 07:18:49;;;;;;;;;;;24.80;98.10;;;;;;5067817;28;19929;-57
2021/08/12 07:21:40;;;;;;;;;;;26.10;96.70;;;;;;5096859;27;19929;-56
2021/08/12 07:24:28;;;;;;;;;;;25.50;97.10;;;;;;5073266;28;19924;-55
2021/08/12 07:27:18;;;;;;;;;;;24.20;98.60;;;;;;5082050;28;19936;-56
2021/08/12 07:30:08;;;;;;;;;;;24.10;99.70;;;;;;5079317;28;19931;-55
2021/08/12 07:32:57;;;;;;;;;;;24.80;98.10;;;;;;5068629;28;19929;-58
2021/08/12 07:35:50;;;;;;;;;;;25.00;97.60;;;;;;5085585;28;19925;-56
2021/08/12 07:38:41;;;;;;;;;;;24.50;98.20;;;;;;5099033;28;19928;-56
2021/08/12 07:41:30;;;;;;;;;;;24.90;98.40;;;;;;5083627;28;19932;-56
2021/08/12 07:44:44;;;;;;;;;;;25.40;97.40;;;;;;5095400;28;20288;-56
2021/08/12 07:47:33;;;;;;;;;;;25.20;97.80;;;;;;5084834;28;20019;-58
2021/08/12 07:50:21;;;;;;;;;;;25.70;97.80;;;;;;5072206;28;19934;-55
2021/08/12 07:53:10;;;;;;;;;;;25.20;97.90;;;;;;5072580;28;19970;-56
2021/08/12 07:56:00;;;;;;;;;;;26.20;97.70;;;;;;5058134;28;19936;-55
2021/08/12 07:58:49;;;;;;;;;;;26.50;96.10;;;;;;5072828;28;20017;-56
2021/08/12 08:01:38;;;;;;;;;;;26.50;96.60;;;;;;5065950;28;19936;-56
2021/08/12 08:04:28;;;;;;;;;;;28.00;95.00;;;;;;5072859;28;19974;-55
2021/08/12 08:07:17;;;;;;;;;;;27.20;95.10;;;;;;5071689;28;19929;-56
2021/08/12 08:10:06;;;;;;;;;;;27.70;94.20;;;;;;5071661;28;20300;-55
2021/08/12 08:12:56;;;;;;;;;;;27.30;94.90;;;;;;5072971;28;20279;-56
2021/08/12 08:15:45;;;;;;;;;;;28.20;94.30;;;;;;5065579;28;19970;-56
2021/08/12 08:18:34;;;;;;;;;;;28.20;93.10;;;;;;5071833;28;19924;-58
2021/08/12 08:21:22;;;;;;;;;;;28.80;92.90;;;;;;5072176;28;20418;-56
2021/08/12 08:24:11;;;;;;;;;;;28.20;92.70;;;;;;5072256;28;20284;-59
2021/08/12 08:26:59;;;;;;;;;;;29.20;92.10;;;;;;5070829;28;19924;-56
2021/08/12 08:29:50;;;;;;;;;;;29.60;91.00;;;;;;5069927;28;19932;-57
2021/08/12 08:32:38;;;;;;;;;;;30.30;90.40;;;;;;5070182;28;19928;-57
2021/08/12 08:35:28;;;;;;;;;;;29.90;91.40;;;;;;5071392;28;19932;-57
2021/08/12 08:38:17;;;;;;;;;;;29.70;90.40;;;;;;5071355;28;20365;-56
2021/08/12 08:41:07;;;;;;;;;;;30.40;90.10;;;;;;5069797;28;19924;-57
2021/08/12 08:43:56;;;;;;;;;;;31.20;86.30;;;;;;5071803;28;20414;-56
2021/08/12 08:46:47;;;;;;;;;;;29.60;90.00;;;;;;5070531;28;19925;-57
2021/08/12 08:49:37;;;;;;;;;;;29.50;90.90;;;;;;5077866;28;19938;-59
2021/08/12 08:52:26;;;;;;;;;;;28.80;91.60;;;;;;5071761;28;19931;-56
2021/08/12 08:55:20;;;;;;;;;;;28.70;92.20;;;;;;5069602;28;19931;-57
2021/08/12 08:58:10;;;;;;;;;;;30.40;90.60;;;;;;5067167;28;20023;-56
2021/08/12 09:00:58;;;;;;;;;;;31.60;87.10;;;;;;5059994;28;19929;-56
2021/08/12 09:03:50;;;;;;;;;;;31.00;86.90;;;;;;5067723;28;20400;-56
2021/08/12 09:06:39;;;;;;;;;;;31.40;86.80;;;;;;5068116;28;20023;-56
2021/08/12 09:09:27;;;;;;;;;;;33.10;81.20;;;;;;5066185;28;20373;-59
2021/08/12 09:12:16;;;;;;;;;;;34.90;76.40;;;;;;5064723;28;19924;-57
2021/08/12 09:15:05;;;;;;;;;;;35.70;70.00;;;;;;5062643;28;19933;-56
2021/08/12 09:17:57;;;;;;;;;;;34.80;68.40;;;;;;5069227;28;20449;-57
2021/08/12 09:20:49;;;;;;;;;;;35.00;69.30;;;;;;5068724;28;19924;-57
2021/08/12 09:23:37;;;;;;;;;;;36.70;64.80;;;;;;5064672;28;19930;-57
2021/08/12 09:26:28;;;;;;;;;;;34.50;68.30;;;;;;5066787;28;19931;-57
2021/08/12 09:29:27;;;;;;;;;;;33.20;69.40;;;;;;5059922;28;19988;-57
2021/08/12 09:32:16;;;;;;;;;;;32.20;71.50;;;;;;5059936;28;19925;-57
2021/08/12 09:35:05;;;;;;;;;;;33.00;71.00;;;;;;5068327;28;19932;-56
2021/08/12 09:38:07;;;;;;;;;;;31.40;75.30;;;;;;5067484;28;19925;-57
2021/08/12 09:40:57;;;;;;;;;;;30.50;77.20;;;;;;5067310;28;19978;-57
2021/08/12 09:43:46;;;;;;;;;;;30.60;80.00;;;;;;5067978;28;20426;-56
2021/08/12 09:46:35;;;;;;;;;;;30.40;80.90;;;;;;5060957;28;19986;-57
2021/08/12 09:49:24;;;;;;;;;;;30.50;81.70;;;;;;5063657;28;20368;-57
2021/08/12 09:52:20;;;;;;;;;;;30.00;84.90;;;;;;5064037;28;19924;-57
2021/08/12 09:55:11;;;;;;;;;;;30.00;82.80;;;;;;5066055;28;19935;-57
2021/08/12 09:58:07;;;;;;;;;;;29.60;84.80;;;;;;5061989;28;20014;-57
2021/08/12 10:00:56;;;;;;;;;;;29.60;84.90;;;;;;5062429;28;19925;-56
2021/08/12 10:03:45;;;;;;;;;;;29.40;83.50;;;;;;5053331;28;19924;-56
2021/08/12 10:06:36;;;;;;;;;;;28.20;87.50;;;;;;5067137;28;19925;-56
2021/08/12 10:09:25;;;;;;;;;;;28.60;87.40;;;;;;5064876;28;20245;-57
2021/08/12 10:12:32;;;;;;;;;;;28.90;87.20;;;;;;5068694;28;19924;-56
2021/08/12 10:15:22;;;;;;;;;;;28.30;88.40;;;;;;5060276;28;19947;-56
2021/08/12 10:18:10;;;;;;;;;;;28.10;90.40;;;;;;5068297;28;19998;-57
2021/08/12 10:20:59;;;;;;;;;;;28.00;90.20;;;;;;5065106;28;19924;-57
2021/08/12 10:23:51;;;;;;;;;;;28.50;89.20;;;;;;5068230;28;20113;-57
2021/08/12 10:26:43;;;;;;;;;;;28.70;88.70;;;;;;5063630;28;20364;-57
2021/08/12 10:29:34;;;;;;;;;;;28.40;90.20;;;;;;5062287;28;19932;-57
2021/08/12 10:32:23;;;;;;;;;;;28.60;87.40;;;;;;5061551;28;19977;-57
2021/08/12 10:35:12;;;;;;;;;;;30.40;81.60;;;;;;5075819;28;19928;-57
2021/08/12 10:38:02;;;;;;;;;;;30.60;79.00;;;;;;5068542;28;19929;-59
2021/08/12 10:40:52;;;;;;;;;;;30.40;80.10;;;;;;5067429;28;19931;-59
2021/08/12 10:43:41;;;;;;;;;;;29.30;84.90;;;;;;5068633;28;23908;-56
2021/08/12 10:46:34;;;;;;;;;;;29.50;82.90;;;;;;5065539;28;19955;-56
2021/08/12 10:49:24;;;;;;;;;;;29.30;82.40;;;;;;5072436;28;20374;-57
2021/08/12 10:52:13;;;;;;;;;;;29.30;82.30;;;;;;5062046;28;19928;-57
2021/08/12 10:55:19;;;;;;;;;;;29.80;78.30;;;;;;5070566;28;19963;-57
2021/08/12 10:58:25;;;;;;;;;;;30.90;79.10;;;;;;5070362;28;19924;-57
2021/08/12 11:01:14;;;;;;;;;;;30.00;77.10;;;;;;5066104;28;20398;-57
2021/08/12 11:04:05;;;;;;;;;;;29.60;79.50;;;;;;5072129;28;19939;-57
2021/08/12 11:06:54;;;;;;;;;;;29.90;81.30;;;;;;5080425;28;20311;-57
2021/08/12 11:09:55;;;;;;;;;;;28.90;81.80;;;;;;5061170;28;20303;-57
2021/08/12 11:13:03;;;;;;;;;;;28.60;84.00;;;;;;5071655;28;19933;-57
2021/08/12 11:16:01;;;;;;;;;;;28.30;82.80;;;;;;5057209;28;19925;-57
2021/08/12 11:18:50;;;;;;;;;;;28.40;84.60;;;;;;5076909;28;19924;-57
2021/08/12 11:21:41;;;;;;;;;;;29.20;80.60;;;;;;5070202;28;20390;-57
2021/08/12 11:24:49;;;;;;;;;;;29.50;80.00;;;;;;5070429;28;20058;-57
2021/08/12 11:27:44;;;;;;;;;;;29.60;79.60;;;;;;5070098;28;19947;-58
2021/08/12 11:30:42;;;;;;;;;;;30.00;79.10;;;;;;5064419;28;19930;-57
2021/08/12 11:33:57;;;;;;;;;;;29.20;80.60;;;;;;5071650;28;20371;-56
2021/08/12 11:37:00;;;;;;;;;;;29.00;79.80;;;;;;5070626;28;19928;-57
2021/08/12 11:39:52;;;;;;;;;;;28.70;81.70;;;;;;5082246;28;20050;-57
2021/08/12 11:42:43;;;;;;;;;;;29.20;81.00;;;;;;5064567;28;20379;-57
2021/08/12 11:45:33;;;;;;;;;;;28.80;81.80;;;;;;5091684;28;20300;-57
2021/08/12 11:48:23;;;;;;;;;;;28.70;82.40;;;;;;5069337;28;20042;-57
2021/08/12 11:51:12;;;;;;;;;;;29.10;82.90;;;;;;5069709;28;19924;-57
2021/08/12 11:54:02;;;;;;;;;;;29.40;82.70;;;;;;5071623;28;20388;-57
2021/08/12 12:00:07;;;;;;;;;;;29.50;82.50;;;;;;5059544;28;19929;-57
2021/08/12 12:03:00;;;;;;;;;;;28.40;84.60;;;;;;5064041;28;19924;-58
2021/08/12 12:05:51;;;;;;;;;;;28.00;85.50;;;;;;5071252;28;19932;-57
2021/08/12 12:08:40;;;;;;;;;;;28.30;85.60;;;;;;5071021;28;19931;-57
2021/08/12 12:11:28;;;;;;;;;;;28.20;83.90;;;;;;5067360;28;19931;-57
2021/08/12 12:14:19;;;;;;;;;;;28.60;84.40;;;;;;5070657;28;19932;-58
2021/08/12 12:17:33;;;;;;;;;;;29.00;83.30;;;;;;5068631;28;19958;-57
2021/08/12 12:20:31;;;;;;;;;;;29.50;82.90;;;;;;5096435;28;19924;-57
2021/08/12 12:23:24;;;;;;;;;;;28.90;82.60;;;;;;5067361;28;19928;-57
2021/08/12 12:26:19;;;;;;;;;;;29.50;82.10;;;;;;5070515;28;20387;-57
2021/08/12 12:29:10;;;;;;;;;;;29.30;81.80;;;;;;5064439;28;19925;-56
2021/08/12 12:32:01;;;;;;;;;;;29.10;83.70;;;;;;5065340;28;19932;-57
2021/08/12 12:34:53;;;;;;;;;;;28.70;85.50;;;;;;5065872;28;20181;-58
2021/08/12 12:37:47;;;;;;;;;;;29.00;81.50;;;;;;5066736;28;19924;-57
2021/08/12 12:40:39;;;;;;;;;;;29.70;80.70;;;;;;5070122;28;19936;-57
2021/08/12 12:43:29;;;;;;;;;;;29.60;80.70;;;;;;5069836;28;19928;-57
2021/08/12 12:46:30;;;;;;;;;;;29.50;79.80;;;;;;5057346;28;19932;-58
2021/08/12 12:49:29;;;;;;;;;;;29.30;81.70;;;;;;5068279;28;19932;-57
2021/08/12 12:52:17;;;;;;;;;;;28.70;80.30;;;;;;5070794;28;19925;-57
2021/08/12 12:55:16;;;;;;;;;;;28.90;84.70;;;;;;5071282;28;19925;-57
2021/08/12 12:58:15;;;;;;;;;;;29.40;81.70;;;;;;5069903;28;20595;-57
2021/08/12 13:01:05;;;;;;;;;;;29.90;82.60;;;;;;5061512;28;19932;-57
2021/08/12 13:03:58;;;;;;;;;;;30.10;80.40;;;;;;5062157;28;19928;-57
2021/08/12 13:06:49;;;;;;;;;;;30.10;80.40;;;;;;5070555;28;19978;-57
2021/08/12 13:09:38;;;;;;;;;;;30.00;80.10;;;;;;5071401;28;20375;-57
2021/08/12 13:12:29;;;;;;;;;;;29.60;83.50;;;;;;5068776;28;19929;-57
2021/08/12 13:15:23;;;;;;;;;;;28.50;80.60;;;;;;5062403;28;19982;-56
2021/08/12 13:18:12;;;;;;;;;;;28.20;85.80;;;;;;5067124;28;19991;-56
2021/08/12 13:21:02;;;;;;;;;;;28.20;86.10;;;;;;5077638;28;19982;-57
2021/08/12 13:23:53;;;;;;;;;;;28.20;84.70;;;;;;5067051;28;20069;-57
2021/08/12 13:26:44;;;;;;;;;;;28.30;88.80;;;;;;5069042;28;19936;-58
2021/08/12 13:29:33;;;;;;;;;;;28.40;83.30;;;;;;5065701;28;19932;-57
2021/08/12 13:32:32;;;;;;;;;;;28.60;83.50;;;;;;5056886;28;19990;-58
2021/08/12 13:35:22;;;;;;;;;;;28.40;84.00;;;;;;5071210;28;19925;-57
2021/08/12 13:38:11;;;;;;;;;;;28.50;84.50;;;;;;5069152;28;19931;-57
2021/08/12 13:41:01;;;;;;;;;;;28.30;85.50;;;;;;5068147;28;19931;-60
2021/08/12 13:43:50;;;;;;;;;;;28.30;86.50;;;;;;5067347;28;19931;-57
2021/08/12 13:46:38;;;;;;;;;;;28.10;85.70;;;;;;5059793;28;19924;-57
2021/08/12 13:49:28;;;;;;;;;;;28.20;87.80;;;;;;5068392;28;19925;-58
2021/08/12 13:52:17;;;;;;;;;;;28.40;85.60;;;;;;5070244;28;19924;-57
2021/08/12 13:55:09;;;;;;;;;;;28.60;86.00;;;;;;5064943;28;20023;-57
2021/08/12 13:57:59;;;;;;;;;;;28.80;85.30;;;;;;5070125;28;19996;-58
2021/08/12 14:00:48;;;;;;;;;;;28.60;83.80;;;;;;5057517;28;20009;-57
2021/08/12 14:03:37;;;;;;;;;;;28.30;85.40;;;;;;5064451;28;20014;-57
2021/08/12 14:06:26;;;;;;;;;;;28.20;84.20;;;;;;5070491;28;19924;-57
2021/08/12 14:09:15;;;;;;;;;;;28.00;85.50;;;;;;5068334;28;19949;-56
2021/08/12 14:12:04;;;;;;;;;;;28.20;87.00;;;;;;5066100;28;19924;-57
2021/08/12 14:14:54;;;;;;;;;;;27.90;88.70;;;;;;5078452;28;20388;-57
2021/08/12 14:17:44;;;;;;;;;;;27.90;87.40;;;;;;5083179;28;19951;-60
2021/08/12 14:20:33;;;;;;;;;;;28.00;87.90;;;;;;5080139;28;19932;-57
2021/08/12 14:23:25;;;;;;;;;;;28.10;88.50;;;;;;5077535;28;20377;-57
2021/08/12 14:26:15;;;;;;;;;;;28.40;89.50;;;;;;5081601;28;19932;-59
2021/08/12 14:29:03;;;;;;;;;;;28.50;88.50;;;;;;5082761;28;19928;-57
2021/08/12 14:31:56;;;;;;;;;;;28.30;84.80;;;;;;5080354;28;20007;-57
2021/08/12 14:34:45;;;;;;;;;;;28.20;85.30;;;;;;5084091;28;19928;-57
2021/08/12 14:37:33;;;;;;;;;;;28.20;85.90;;;;;;5072546;28;20296;-57
2021/08/12 14:43:35;;;;;;;;;;;28.20;84.50;;;;;;5080107;28;19928;-58
2021/08/12 14:46:24;;;;;;;;;;;28.70;86.80;;;;;;5080324;28;19992;-58
2021/08/12 14:49:19;;;;;;;;;;;29.20;84.90;;;;;;5087898;28;19924;-58
2021/08/12 14:52:08;;;;;;;;;;;29.70;83.70;;;;;;5080584;28;19924;-58
2021/08/12 14:54:56;;;;;;;;;;;30.00;82.80;;;;;;5067590;28;19925;-58
2021/08/12 14:57:45;;;;;;;;;;;29.60;82.40;;;;;;5081228;28;19936;-58
2021/08/12 15:00:34;;;;;;;;;;;29.30;82.70;;;;;;5085816;28;19924;-58
2021/08/12 15:03:48;;;;;;;;;;;29.30;84.20;;;;;;5068062;28;19931;-58
2021/08/12 15:06:38;;;;;;;;;;;29.30;82.70;;;;;;5059165;28;19925;-58
2021/08/12 15:09:27;;;;;;;;;;;28.80;84.00;;;;;;5042915;28;20019;-58
2021/08/12 15:12:16;;;;;;;;;;;28.50;84.10;;;;;;5044997;28;20437;-58
2021/08/12 15:15:06;;;;;;;;;;;28.60;84.80;;;;;;5045755;28;20311;-58
2021/08/12 15:17:56;;;;;;;;;;;28.40;84.80;;;;;;5049856;28;20487;-58
2021/08/12 15:20:44;;;;;;;;;;;28.70;85.90;;;;;;5050191;28;20416;-58
2021/08/12 15:23:35;;;;;;;;;;;29.20;83.60;;;;;;5052333;28;20365;-58
2021/08/12 15:26:24;;;;;;;;;;;29.30;82.50;;;;;;5050139;28;19932;-58
2021/08/12 15:29:13;;;;;;;;;;;28.90;82.90;;;;;;5047863;28;19924;-58
2021/08/12 15:32:02;;;;;;;;;;;28.90;84.90;;;;;;5043919;28;20270;-58
2021/08/12 15:34:51;;;;;;;;;;;28.50;83.50;;;;;;5048388;28;19931;-58
2021/08/12 15:37:41;;;;;;;;;;;28.60;84.90;;;;;;5051053;28;20011;-58
2021/08/12 15:40:31;;;;;;;;;;;28.60;83.60;;;;;;5046286;28;19932;-58
2021/08/12 15:43:21;;;;;;;;;;;28.60;86.30;;;;;;5044469;28;19925;-58
2021/08/12 15:46:12;;;;;;;;;;;28.40;85.50;;;;;;5036563;28;19932;-58
2021/08/12 15:49:01;;;;;;;;;;;28.20;85.80;;;;;;5043848;28;19978;-58
2021/08/12 15:51:50;;;;;;;;;;;28.20;85.80;;;;;;5050270;28;20335;-60
2021/08/12 15:54:39;;;;;;;;;;;28.20;86.80;;;;;;5049549;28;19925;-58
2021/08/12 15:57:29;;;;;;;;;;;28.00;87.80;;;;;;5049765;28;19929;-58
2021/08/12 16:00:48;;;;;;;;;;;27.90;88.60;;;;;;5045925;28;19925;-57
2021/08/12 16:06:49;;;;;;;;;;;28.00;84.50;;;;;;5047534;28;20438;-57
2021/08/12 16:09:38;;;;;;;;;;;28.40;83.50;;;;;;5055344;28;19925;-57
2021/08/12 16:12:27;;;;;;;;;;;28.70;82.10;;;;;;5059354;28;19925;-58
2021/08/12 16:15:17;;;;;;;;;;;28.70;84.40;;;;;;5043097;28;20120;-58
2021/08/12 16:18:06;;;;;;;;;;;28.50;84.80;;;;;;5050604;28;20397;-58
2021/08/12 16:20:55;;;;;;;;;;;28.70;84.30;;;;;;5050356;28;19932;-60
2021/08/12 16:23:45;;;;;;;;;;;28.90;84.90;;;;;;5049082;28;19925;-58
2021/08/12 16:26:59;;;;;;;;;;;29.00;84.70;;;;;;5048662;28;20376;-59
2021/08/12 16:29:48;;;;;;;;;;;29.00;84.90;;;;;;5050136;28;19984;-59
2021/08/12 16:32:39;;;;;;;;;;;28.60;85.20;;;;;;5051411;28;20372;-58
2021/08/12 16:35:27;;;;;;;;;;;28.30;86.30;;;;;;5052206;28;19928;-58
2021/08/12 16:38:16;;;;;;;;;;;28.00;88.90;;;;;;5043701;28;19929;-57
2021/08/12 16:41:05;;;;;;;;;;;27.70;87.70;;;;;;5052026;28;19924;-57
2021/08/12 16:43:54;;;;;;;;;;;27.60;88.00;;;;;;5048767;28;19932;-57
2021/08/12 16:46:43;;;;;;;;;;;27.60;89.50;;;;;;5043862;28;19932;-57